createdAt,value
2022-11-20T00:00:00.211Z,977.64
2022-11-20T00:01:00.203Z,977.59
2022-11-20T00:02:00.244Z,977.64
2022-11-20T00:03:00.186Z,977.66
2022-11-20T00:04:00.177Z,977.66
2022-11-20T00:05:00.164Z,977.63
2022-11-20T00:06:00.154Z,977.60
2022-11-20T00:07:00.263Z,977.58
2022-11-20T00:08:00.143Z,977.59
2022-11-20T00:09:00.132Z,977.55
2022-11-20T00:10:00.144Z,977.58
2022-11-20T00:11:00.111Z,977.56
2022-11-20T00:12:00.107Z,977.52
2022-11-20T00:13:00.106Z,977.54
2022-11-20T00:14:00.086Z,977.43
2022-11-20T00:15:00.083Z,977.51
2022-11-20T00:16:00.121Z,977.52
2022-11-20T00:17:00.118Z,977.58
2022-11-20T00:18:00.050Z,977.50
2022-11-20T00:19:00.040Z,977.54
2022-11-20T00:20:00.031Z,977.53
2022-11-20T00:21:00.021Z,977.54
2022-11-20T00:22:00.110Z,977.51
2022-11-20T00:23:00.003Z,977.56
2022-11-20T00:24:00.006Z,977.58
2022-11-20T00:24:59.988Z,977.50
2022-11-20T00:25:59.974Z,977.55
2022-11-20T00:26:59.973Z,977.57
2022-11-20T00:27:59.955Z,977.55
2022-11-20T00:28:59.950Z,977.56
2022-11-20T00:29:59.933Z,977.54
2022-11-20T00:30:59.925Z,977.59
2022-11-20T00:31:59.926Z,977.52
2022-11-20T00:32:59.910Z,977.52
2022-11-20T00:33:59.900Z,977.51
2022-11-20T00:34:59.890Z,977.48
2022-11-20T00:35:59.876Z,977.49
2022-11-20T00:36:59.876Z,977.48
2022-11-20T00:37:59.858Z,977.53
2022-11-20T00:38:59.849Z,977.49
2022-11-20T00:39:59.842Z,977.50
2022-11-20T00:40:59.831Z,977.46
2022-11-20T00:41:59.829Z,977.51
2022-11-20T00:42:59.812Z,977.42
2022-11-20T00:43:59.807Z,977.45
2022-11-20T00:44:59.799Z,977.44
2022-11-20T00:45:59.789Z,977.49
2022-11-20T00:46:59.788Z,977.39
2022-11-20T00:47:59.764Z,977.43
2022-11-20T00:48:59.755Z,977.45
2022-11-20T00:49:59.749Z,977.42
2022-11-20T00:50:59.742Z,977.39
2022-11-20T00:51:59.739Z,977.32
2022-11-20T00:52:59.720Z,977.36
2022-11-20T00:53:59.718Z,977.35
2022-11-20T00:54:59.704Z,977.37
2022-11-20T00:55:59.694Z,977.30
2022-11-20T00:56:59.697Z,977.32
2022-11-20T00:58:03.612Z,977.33
2022-11-20T00:59:00.676Z,977.39
2022-11-20T00:59:59.662Z,977.45
2022-11-20T01:00:59.681Z,977.43
2022-11-20T01:01:59.657Z,977.37
2022-11-20T01:02:59.639Z,977.38
2022-11-20T01:03:59.633Z,977.44
2022-11-20T01:04:59.623Z,977.38
2022-11-20T01:05:59.609Z,977.37
2022-11-20T01:06:59.641Z,977.27
2022-11-20T01:07:59.593Z,977.34
2022-11-20T01:08:59.582Z,977.37
2022-11-20T01:09:59.573Z,977.25
2022-11-20T01:10:59.563Z,977.32
2022-11-20T01:11:59.565Z,977.35
2022-11-20T01:12:59.550Z,977.33
2022-11-20T01:13:59.541Z,977.28
2022-11-20T01:14:59.532Z,977.27
2022-11-20T01:15:59.520Z,977.32
2022-11-20T01:16:59.535Z,977.29
2022-11-20T01:17:59.505Z,977.29
2022-11-20T01:18:59.493Z,977.28
2022-11-20T01:19:59.486Z,977.23
2022-11-20T01:20:59.479Z,977.27
2022-11-20T01:21:59.479Z,977.25
2022-11-20T01:22:59.459Z,977.35
2022-11-20T01:23:59.452Z,977.32
2022-11-20T01:24:59.443Z,977.30
2022-11-20T01:25:59.438Z,977.38
2022-11-20T01:26:59.442Z,977.29
2022-11-20T01:27:59.417Z,977.35
2022-11-20T01:28:59.407Z,977.31
2022-11-20T01:30:01.255Z,977.34
2022-11-20T01:31:00.388Z,977.34
2022-11-20T01:31:59.388Z,977.27
2022-11-20T01:32:59.369Z,977.27
2022-11-20T01:33:59.359Z,977.35
2022-11-20T01:34:59.363Z,977.33
2022-11-20T01:35:59.344Z,977.34
2022-11-20T01:36:59.347Z,977.27
2022-11-20T01:37:59.322Z,977.31
2022-11-20T01:38:59.319Z,977.20
2022-11-20T01:39:59.303Z,977.20
2022-11-20T01:40:59.297Z,977.20
2022-11-20T01:41:59.296Z,977.13
2022-11-20T01:42:59.273Z,977.12
2022-11-20T01:43:59.266Z,977.16
2022-11-20T01:44:59.264Z,977.14
2022-11-20T01:45:59.250Z,977.19
2022-11-20T01:46:59.250Z,977.14
2022-11-20T01:47:59.247Z,977.15
2022-11-20T01:48:59.222Z,977.11
2022-11-20T01:49:59.235Z,977.02
2022-11-20T01:50:59.199Z,977.06
2022-11-20T01:52:00.203Z,976.96
2022-11-20T01:52:59.187Z,976.97
2022-11-20T01:53:59.178Z,977.05
2022-11-20T01:54:59.174Z,977.05
2022-11-20T01:55:59.161Z,977.10
2022-11-20T01:56:59.164Z,977.10
2022-11-20T01:57:59.145Z,977.14
2022-11-20T01:58:59.136Z,977.10
2022-11-20T01:59:59.131Z,977.19
2022-11-20T02:00:59.179Z,977.11
2022-11-20T02:01:59.120Z,977.06
2022-11-20T02:02:59.108Z,977.08
2022-11-20T02:03:59.093Z,977.13
2022-11-20T02:04:59.090Z,977.08
2022-11-20T02:05:59.073Z,977.02
2022-11-20T02:06:59.120Z,977.13
2022-11-20T02:07:59.058Z,977.03
2022-11-20T02:08:59.048Z,977.07
2022-11-20T02:09:59.144Z,977.17
2022-11-20T02:10:59.039Z,977.11
2022-11-20T02:11:59.032Z,977.12
2022-11-20T02:12:59.009Z,977.11
2022-11-20T02:13:59.001Z,977.08
2022-11-20T02:14:59.026Z,977.06
2022-11-20T02:15:58.980Z,977.02
2022-11-20T02:16:58.979Z,976.98
2022-11-20T02:17:58.962Z,977.01
2022-11-20T02:18:58.960Z,977.02
2022-11-20T02:19:58.951Z,977.04
2022-11-20T02:20:58.940Z,977.09
2022-11-20T02:21:58.941Z,977.02
2022-11-20T02:22:58.920Z,977.03
2022-11-20T02:23:58.912Z,977.05
2022-11-20T02:24:58.897Z,977.06
2022-11-20T02:25:58.884Z,977.02
2022-11-20T02:26:58.893Z,977.03
2022-11-20T02:27:58.872Z,977.02
2022-11-20T02:28:58.871Z,976.97
2022-11-20T02:29:58.850Z,976.97
2022-11-20T02:30:58.847Z,976.95
2022-11-20T02:31:58.843Z,976.94
2022-11-20T02:32:58.828Z,977.01
2022-11-20T02:33:58.820Z,976.96
2022-11-20T02:34:58.807Z,976.97
2022-11-20T02:35:58.799Z,976.99
2022-11-20T02:36:58.808Z,976.94
2022-11-20T02:37:58.784Z,976.87
2022-11-20T02:38:58.775Z,976.81
2022-11-20T02:39:58.766Z,976.86
2022-11-20T02:40:58.754Z,976.79
2022-11-20T02:41:58.757Z,976.79
2022-11-20T02:42:58.739Z,976.75
2022-11-20T02:43:58.732Z,976.80
2022-11-20T02:44:58.723Z,976.73
2022-11-20T02:45:58.718Z,976.78
2022-11-20T02:46:58.711Z,976.83
2022-11-20T02:47:58.700Z,976.83
2022-11-20T02:48:58.687Z,976.77
2022-11-20T02:49:58.689Z,976.83
2022-11-20T02:50:58.666Z,976.83
2022-11-20T02:51:58.670Z,976.81
2022-11-20T02:52:58.654Z,976.89
2022-11-20T02:53:58.645Z,976.85
2022-11-20T02:54:58.637Z,976.82
2022-11-20T02:55:58.630Z,976.80
2022-11-20T02:56:58.631Z,976.81
2022-11-20T02:57:58.615Z,976.84
2022-11-20T02:58:58.603Z,976.81
2022-11-20T02:59:58.592Z,976.84
2022-11-20T03:00:58.647Z,976.84
2022-11-20T03:01:58.587Z,976.75
2022-11-20T03:02:58.559Z,976.73
2022-11-20T03:03:58.555Z,976.79
2022-11-20T03:04:58.546Z,976.81
2022-11-20T03:05:58.543Z,976.75
2022-11-20T03:06:58.592Z,976.80
2022-11-20T03:07:58.522Z,976.81
2022-11-20T03:08:58.517Z,976.88
2022-11-20T03:09:58.502Z,976.88
2022-11-20T03:10:58.499Z,976.84
2022-11-20T03:11:58.502Z,976.95
2022-11-20T03:12:58.476Z,976.91
2022-11-20T03:13:58.473Z,976.91
2022-11-20T03:14:58.470Z,976.86
2022-11-20T03:15:58.450Z,976.99
2022-11-20T03:16:58.451Z,976.87
2022-11-20T03:17:58.431Z,976.88
2022-11-20T03:18:58.421Z,976.91
2022-11-20T03:19:58.412Z,976.95
2022-11-20T03:20:58.406Z,976.88
2022-11-20T03:21:58.396Z,976.92
2022-11-20T03:22:59.384Z,976.87
2022-11-20T03:23:58.436Z,976.81
2022-11-20T03:24:58.363Z,976.86
2022-11-20T03:25:58.356Z,976.86
2022-11-20T03:26:58.359Z,976.78
2022-11-20T03:27:58.336Z,976.87
2022-11-20T03:28:58.328Z,976.79
2022-11-20T03:29:58.316Z,976.81
2022-11-20T03:30:58.316Z,976.91
2022-11-20T03:31:58.314Z,976.86
2022-11-20T03:32:58.418Z,976.85
2022-11-20T03:33:58.286Z,976.84
2022-11-20T03:34:58.272Z,976.86
2022-11-20T03:35:58.267Z,976.80
2022-11-20T03:36:58.268Z,976.74
2022-11-20T03:37:58.248Z,976.74
2022-11-20T03:38:58.237Z,976.73
2022-11-20T03:39:58.230Z,976.70
2022-11-20T03:40:58.215Z,976.68
2022-11-20T03:41:58.211Z,976.68
2022-11-20T03:42:58.213Z,976.70
2022-11-20T03:43:58.192Z,976.66
2022-11-20T03:44:58.184Z,976.66
2022-11-20T03:45:58.175Z,976.64
2022-11-20T03:46:58.164Z,976.70
2022-11-20T03:47:58.167Z,976.62
2022-11-20T03:48:58.147Z,976.64
2022-11-20T03:49:58.130Z,976.66
2022-11-20T03:50:59.128Z,976.65
2022-11-20T03:51:58.120Z,976.57
2022-11-20T03:52:58.120Z,976.51
2022-11-20T03:53:58.100Z,976.48
2022-11-20T03:54:58.091Z,976.47
2022-11-20T03:55:58.076Z,976.55
2022-11-20T03:56:58.118Z,976.46
2022-11-20T03:57:58.072Z,976.50
2022-11-20T03:58:58.061Z,976.44
2022-11-20T03:59:58.043Z,976.41
2022-11-20T04:00:58.030Z,976.41
2022-11-20T04:01:58.117Z,976.43
2022-11-20T04:02:58.032Z,976.49
2022-11-20T04:03:58.029Z,976.48
2022-11-20T04:04:58.008Z,976.42
2022-11-20T04:05:58.000Z,976.44
2022-11-20T04:06:58.032Z,976.54
2022-11-20T04:07:57.984Z,976.54
2022-11-20T04:08:57.968Z,976.58
2022-11-20T04:09:57.956Z,976.59
2022-11-20T04:10:57.946Z,976.59
2022-11-20T04:11:57.939Z,976.54
2022-11-20T04:12:57.939Z,976.57
2022-11-20T04:13:57.921Z,976.56
2022-11-20T04:14:57.910Z,976.56
2022-11-20T04:15:57.899Z,976.50
2022-11-20T04:16:57.940Z,976.53
2022-11-20T04:17:57.889Z,976.54
2022-11-20T04:18:57.872Z,976.55
2022-11-20T04:19:57.866Z,976.56
2022-11-20T04:20:57.851Z,976.52
2022-11-20T04:21:57.843Z,976.52
2022-11-20T04:22:57.842Z,976.59
2022-11-20T04:23:57.824Z,976.60
2022-11-20T04:24:57.815Z,976.56
2022-11-20T04:25:57.801Z,976.58
2022-11-20T04:26:57.792Z,976.63
2022-11-20T04:27:57.803Z,976.60
2022-11-20T04:28:57.776Z,976.56
2022-11-20T04:29:57.767Z,976.54
2022-11-20T04:30:57.757Z,976.47
2022-11-20T04:31:57.744Z,976.53
2022-11-20T04:32:57.748Z,976.55
2022-11-20T04:33:57.730Z,976.54
2022-11-20T04:34:57.724Z,976.51
2022-11-20T04:35:57.722Z,976.49
2022-11-20T04:36:57.705Z,976.48
2022-11-20T04:37:57.709Z,976.47
2022-11-20T04:38:57.686Z,976.48
2022-11-20T04:39:57.677Z,976.49
2022-11-20T04:40:57.686Z,976.42
2022-11-20T04:41:57.663Z,976.38
2022-11-20T04:42:57.661Z,976.40
2022-11-20T04:43:57.632Z,976.42
2022-11-20T04:44:58.632Z,976.41
2022-11-20T04:45:57.623Z,976.40
2022-11-20T04:46:57.612Z,976.49
2022-11-20T04:47:57.616Z,976.55
2022-11-20T04:48:57.593Z,976.48
2022-11-20T04:49:57.642Z,976.44
2022-11-20T04:50:57.574Z,976.48
2022-11-20T04:51:57.575Z,976.57
2022-11-20T04:52:57.571Z,976.45
2022-11-20T04:53:57.551Z,976.51
2022-11-20T04:54:57.539Z,976.47
2022-11-20T04:55:57.534Z,976.41
2022-11-20T04:56:57.522Z,976.38
2022-11-20T04:57:57.522Z,976.43
2022-11-20T04:58:57.520Z,976.45
2022-11-20T04:59:57.502Z,976.45
2022-11-20T05:00:57.481Z,976.40
2022-11-20T05:01:57.511Z,976.36
2022-11-20T05:02:57.478Z,976.31
2022-11-20T05:03:57.462Z,976.25
2022-11-20T05:04:57.466Z,976.27
2022-11-20T05:05:57.444Z,976.33
2022-11-20T05:06:57.472Z,976.29
2022-11-20T05:07:57.433Z,976.24
2022-11-20T05:08:57.424Z,976.28
2022-11-20T05:09:57.407Z,976.29
2022-11-20T05:10:57.390Z,976.26
2022-11-20T05:11:57.387Z,976.28
2022-11-20T05:12:57.392Z,976.24
2022-11-20T05:13:57.371Z,976.29
2022-11-20T05:14:57.360Z,976.34
2022-11-20T05:15:57.352Z,976.30
2022-11-20T05:16:57.343Z,976.30
2022-11-20T05:17:57.351Z,976.30
2022-11-20T05:18:57.324Z,976.34
2022-11-20T05:19:57.318Z,976.37
2022-11-20T05:20:57.309Z,976.33
2022-11-20T05:21:57.296Z,976.35
2022-11-20T05:22:57.301Z,976.31
2022-11-20T05:23:57.280Z,976.29
2022-11-20T05:24:57.267Z,976.30
2022-11-20T05:25:59.099Z,976.32
2022-11-20T05:26:58.247Z,976.27
2022-11-20T05:27:57.254Z,976.21
2022-11-20T05:28:57.256Z,976.28
2022-11-20T05:29:57.228Z,976.28
2022-11-20T05:30:57.212Z,976.27
2022-11-20T05:31:57.207Z,976.17
2022-11-20T05:32:57.253Z,976.21
2022-11-20T05:33:57.194Z,976.18
2022-11-20T05:34:57.178Z,976.21
2022-11-20T05:35:57.171Z,976.24
2022-11-20T05:36:57.166Z,976.26
2022-11-20T05:37:57.160Z,976.25
2022-11-20T05:39:01.476Z,976.22
2022-11-20T05:39:58.131Z,976.21
2022-11-20T05:40:57.124Z,976.22
2022-11-20T05:41:57.113Z,976.29
2022-11-20T05:42:57.103Z,976.28
2022-11-20T05:43:58.098Z,976.27
2022-11-20T05:44:57.086Z,976.29
2022-11-20T05:45:57.080Z,976.32
2022-11-20T05:46:57.068Z,976.25
2022-11-20T05:47:57.094Z,976.31
2022-11-20T05:48:57.049Z,976.31
2022-11-20T05:49:57.042Z,976.30
2022-11-20T05:50:57.033Z,976.21
2022-11-20T05:51:57.026Z,976.26
2022-11-20T05:52:57.030Z,976.33
2022-11-20T05:53:57.007Z,976.28
2022-11-20T05:54:56.998Z,976.21
2022-11-20T05:55:56.991Z,976.28
2022-11-20T05:56:56.983Z,976.29
2022-11-20T05:58:28.887Z,976.28
2022-11-20T05:58:56.969Z,976.29
2022-11-20T05:59:56.953Z,976.28
2022-11-20T06:00:56.947Z,976.22
2022-11-20T06:01:56.968Z,976.21
2022-11-20T06:02:56.965Z,976.25
2022-11-20T06:03:56.922Z,976.27
2022-11-20T06:04:56.906Z,976.30
2022-11-20T06:05:56.895Z,976.31
2022-11-20T06:06:57.056Z,976.28
2022-11-20T06:07:56.880Z,976.27
2022-11-20T06:08:56.871Z,976.23
2022-11-20T06:09:57.855Z,976.25
2022-11-20T06:10:56.854Z,976.23
2022-11-20T06:11:56.839Z,976.24
2022-11-20T06:12:56.829Z,976.27
2022-11-20T06:13:56.834Z,976.18
2022-11-20T06:14:56.810Z,976.25
2022-11-20T06:15:56.805Z,976.25
2022-11-20T06:16:56.797Z,976.25
2022-11-20T06:17:56.790Z,976.27
2022-11-20T06:18:56.786Z,976.23
2022-11-20T06:19:56.774Z,976.23
2022-11-20T06:20:56.753Z,976.27
2022-11-20T06:21:57.757Z,976.25
2022-11-20T06:22:56.745Z,976.28
2022-11-20T06:23:56.749Z,976.26
2022-11-20T06:24:56.729Z,976.27
2022-11-20T06:25:56.719Z,976.25
2022-11-20T06:26:56.707Z,976.29
2022-11-20T06:27:56.703Z,976.28
2022-11-20T06:28:56.702Z,976.22
2022-11-20T06:29:56.683Z,976.25
2022-11-20T06:30:56.673Z,976.18
2022-11-20T06:31:56.664Z,976.19
2022-11-20T06:32:56.654Z,976.11
2022-11-20T06:33:56.677Z,976.15
2022-11-20T06:34:56.636Z,976.14
2022-11-20T06:36:00.019Z,976.17
2022-11-20T06:36:58.617Z,976.19
2022-11-20T06:37:56.607Z,976.12
2022-11-20T06:38:56.635Z,976.16
2022-11-20T06:39:56.592Z,976.16
2022-11-20T06:40:56.584Z,976.18
2022-11-20T06:41:58.988Z,976.19
2022-11-20T06:42:57.562Z,976.13
2022-11-20T06:43:56.563Z,976.15
2022-11-20T06:44:56.539Z,976.15
2022-11-20T06:45:56.534Z,976.12
2022-11-20T06:46:56.531Z,976.16
2022-11-20T06:47:56.515Z,976.15
2022-11-20T06:48:56.514Z,976.15
2022-11-20T06:49:56.494Z,976.20
2022-11-20T06:50:56.495Z,976.16
2022-11-20T06:51:56.475Z,976.16
2022-11-20T06:52:56.468Z,976.14
2022-11-20T06:53:56.479Z,976.16
2022-11-20T06:54:56.450Z,976.10
2022-11-20T06:55:56.444Z,976.10
2022-11-20T06:56:56.436Z,976.06
2022-11-20T06:57:56.427Z,976.12
2022-11-20T06:58:56.431Z,976.04
2022-11-20T06:59:56.406Z,976.11
2022-11-20T07:00:56.419Z,976.06
2022-11-20T07:01:56.391Z,976.12
2022-11-20T07:02:56.384Z,976.12
2022-11-20T07:03:56.388Z,976.11
2022-11-20T07:04:56.369Z,976.12
2022-11-20T07:05:56.359Z,976.24
2022-11-20T07:06:56.344Z,976.15
2022-11-20T07:07:56.335Z,976.18
2022-11-20T07:08:56.361Z,976.16
2022-11-20T07:09:56.321Z,976.23
2022-11-20T07:10:56.310Z,976.21
2022-11-20T07:11:56.297Z,976.13
2022-11-20T07:12:56.290Z,976.14
2022-11-20T07:13:56.290Z,976.09
2022-11-20T07:14:56.274Z,976.03
2022-11-20T07:15:56.330Z,976.03
2022-11-20T07:16:56.257Z,976.02
2022-11-20T07:17:56.243Z,976.02
2022-11-20T07:18:56.245Z,976.06
2022-11-20T07:19:56.231Z,976.13
2022-11-20T07:20:56.223Z,976.09
2022-11-20T07:21:56.210Z,976.13
2022-11-20T07:22:56.198Z,976.07
2022-11-20T07:23:56.204Z,976.13
2022-11-20T07:24:56.183Z,976.16
2022-11-20T07:25:56.174Z,976.16
2022-11-20T07:26:56.166Z,976.19
2022-11-20T07:27:56.156Z,976.22
2022-11-20T07:28:56.162Z,976.21
2022-11-20T07:29:56.139Z,976.17
2022-11-20T07:30:56.131Z,976.19
2022-11-20T07:31:56.120Z,976.27
2022-11-20T07:32:56.111Z,976.21
2022-11-20T07:33:56.110Z,976.15
2022-11-20T07:34:56.095Z,976.11
2022-11-20T07:35:56.083Z,976.20
2022-11-20T07:36:56.078Z,976.12
2022-11-20T07:37:56.076Z,976.12
2022-11-20T07:38:56.072Z,976.15
2022-11-20T07:39:56.052Z,976.22
2022-11-20T07:40:56.042Z,976.17
2022-11-20T07:41:56.030Z,976.22
2022-11-20T07:42:56.021Z,976.20
2022-11-20T07:43:56.023Z,976.27
2022-11-20T07:44:56.007Z,976.26
2022-11-20T07:45:56.001Z,976.25
2022-11-20T07:46:55.992Z,976.29
2022-11-20T07:47:55.979Z,976.30
2022-11-20T07:48:55.982Z,976.34
2022-11-20T07:49:55.966Z,976.32
2022-11-20T07:50:55.955Z,976.33
2022-11-20T07:51:58.303Z,976.32
2022-11-20T07:52:56.938Z,976.31
2022-11-20T07:53:55.936Z,976.38
2022-11-20T07:54:55.916Z,976.38
2022-11-20T07:55:55.902Z,976.36
2022-11-20T07:56:55.895Z,976.41
2022-11-20T07:57:55.890Z,976.37
2022-11-20T07:58:55.890Z,976.42
2022-11-20T07:59:55.871Z,976.34
2022-11-20T08:00:55.935Z,976.41
2022-11-20T08:01:55.857Z,976.39
2022-11-20T08:02:55.848Z,976.45
2022-11-20T08:03:55.849Z,976.41
2022-11-20T08:04:55.830Z,976.38
2022-11-20T08:05:55.820Z,976.38
2022-11-20T08:06:55.815Z,976.38
2022-11-20T08:07:55.805Z,976.44
2022-11-20T08:08:55.802Z,976.39
2022-11-20T08:09:55.786Z,976.48
2022-11-20T08:10:55.779Z,976.46
2022-11-20T08:11:55.766Z,976.48
2022-11-20T08:12:55.765Z,976.39
2022-11-20T08:13:55.762Z,976.42
2022-11-20T08:14:55.812Z,976.39
2022-11-20T08:15:55.726Z,976.47
2022-11-20T08:16:55.721Z,976.40
2022-11-20T08:18:23.301Z,976.36
2022-11-20T08:18:57.712Z,976.43
2022-11-20T08:19:55.691Z,976.42
2022-11-20T08:20:55.687Z,976.36
2022-11-20T08:21:55.675Z,976.35
2022-11-20T08:22:55.666Z,976.40
2022-11-20T08:23:55.687Z,976.42
2022-11-20T08:24:55.648Z,976.42
2022-11-20T08:25:55.651Z,976.40
2022-11-20T08:26:55.631Z,976.38
2022-11-20T08:28:00.144Z,976.32
2022-11-20T08:28:57.621Z,976.38
2022-11-20T08:29:55.600Z,976.37
2022-11-20T08:30:55.617Z,976.39
2022-11-20T08:31:55.593Z,976.39
2022-11-20T08:32:55.577Z,976.42
2022-11-20T08:33:55.578Z,976.47
2022-11-20T08:34:55.558Z,976.46
2022-11-20T08:35:55.550Z,976.42
2022-11-20T08:36:55.545Z,976.38
2022-11-20T08:37:55.532Z,976.40
2022-11-20T08:38:55.539Z,976.34
2022-11-20T08:39:55.521Z,976.37
2022-11-20T08:40:55.505Z,976.38
2022-11-20T08:41:55.496Z,976.39
2022-11-20T08:42:55.481Z,976.34
2022-11-20T08:43:56.495Z,976.30
2022-11-20T08:44:55.475Z,976.43
2022-11-20T08:45:55.463Z,976.37
2022-11-20T08:46:55.471Z,976.32
2022-11-20T08:47:55.446Z,976.34
2022-11-20T08:48:55.445Z,976.36
2022-11-20T08:49:55.425Z,976.38
2022-11-20T08:50:55.421Z,976.39
2022-11-20T08:51:55.409Z,976.37
2022-11-20T08:52:55.401Z,976.39
2022-11-20T08:53:55.408Z,976.31
2022-11-20T08:54:55.379Z,976.44
2022-11-20T08:55:55.373Z,976.25
2022-11-20T08:56:55.365Z,976.24
2022-11-20T08:57:55.357Z,976.20
2022-11-20T08:59:18.301Z,976.28
2022-11-20T09:00:06.310Z,976.29
2022-11-20T09:00:57.387Z,976.28
2022-11-20T09:01:55.322Z,976.38
2022-11-20T09:02:55.311Z,976.39
2022-11-20T09:03:55.319Z,976.45
2022-11-20T09:04:55.298Z,976.42
2022-11-20T09:05:55.288Z,976.47
2022-11-20T09:06:55.277Z,976.41
2022-11-20T09:07:55.268Z,976.41
2022-11-20T09:08:55.255Z,976.36
2022-11-20T09:10:16.800Z,976.42
2022-11-20T09:10:57.246Z,976.25
2022-11-20T09:11:55.230Z,976.41
2022-11-20T09:12:55.222Z,976.19
2022-11-20T09:13:55.211Z,976.26
2022-11-20T09:14:55.307Z,976.20
2022-11-20T09:15:55.193Z,976.22
2022-11-20T09:16:55.188Z,976.20
2022-11-20T09:17:55.180Z,976.17
2022-11-20T09:19:13.516Z,976.23
2022-11-20T09:19:57.173Z,976.29
2022-11-20T09:20:55.186Z,976.21
2022-11-20T09:21:59.593Z,976.28
2022-11-20T09:22:56.135Z,976.34
2022-11-20T09:23:55.125Z,976.30
2022-11-20T09:24:55.127Z,976.37
2022-11-20T09:25:55.145Z,976.42
2022-11-20T09:26:55.100Z,976.41
2022-11-20T09:27:55.091Z,976.48
2022-11-20T09:28:58.111Z,976.47
2022-11-20T09:29:56.084Z,976.46
2022-11-20T09:30:55.065Z,976.47
2022-11-20T09:31:55.054Z,976.46
2022-11-20T09:32:55.050Z,976.45
2022-11-20T09:33:55.041Z,976.48
2022-11-20T09:34:55.036Z,976.46
2022-11-20T09:35:55.019Z,976.43
2022-11-20T09:36:55.020Z,976.48
2022-11-20T09:37:54.997Z,976.37
2022-11-20T09:38:54.998Z,976.47
2022-11-20T09:39:55.001Z,976.52
2022-11-20T09:40:54.979Z,976.50
2022-11-20T09:41:54.966Z,976.49
2022-11-20T09:42:54.961Z,976.50
2022-11-20T09:43:54.982Z,976.45
2022-11-20T09:44:54.960Z,976.54
2022-11-20T09:45:54.934Z,976.49
2022-11-20T09:46:54.925Z,976.52
2022-11-20T09:47:54.932Z,976.49
2022-11-20T09:48:54.912Z,976.48
2022-11-20T09:49:54.907Z,976.52
2022-11-20T09:50:54.890Z,976.52
2022-11-20T09:51:54.878Z,976.45
2022-11-20T09:52:54.864Z,976.47
2022-11-20T09:53:54.860Z,976.53
2022-11-20T09:54:54.864Z,976.44
2022-11-20T09:55:54.841Z,976.47
2022-11-20T09:56:54.833Z,976.42
2022-11-20T09:57:54.829Z,976.38
2022-11-20T09:58:54.855Z,976.45
2022-11-20T09:59:54.811Z,976.54
2022-11-20T10:00:54.864Z,976.29
2022-11-20T10:01:54.795Z,976.38
2022-11-20T10:02:54.779Z,976.27
2022-11-20T10:03:54.781Z,976.30
2022-11-20T10:04:54.772Z,976.29
2022-11-20T10:05:54.751Z,976.29
2022-11-20T10:07:10.520Z,976.33
2022-11-20T10:07:56.820Z,976.32
2022-11-20T10:08:54.733Z,976.39
2022-11-20T10:09:54.734Z,976.31
2022-11-20T10:10:54.707Z,976.32
2022-11-20T10:11:54.700Z,976.34
2022-11-20T10:12:54.690Z,976.34
2022-11-20T10:13:54.679Z,976.33
2022-11-20T10:14:54.756Z,976.35
2022-11-20T10:15:54.661Z,976.29
2022-11-20T10:16:54.653Z,976.25
2022-11-20T10:17:54.650Z,976.32
2022-11-20T10:18:54.637Z,976.32
2022-11-20T10:19:54.638Z,976.20
2022-11-20T10:20:54.623Z,976.25
2022-11-20T10:21:54.625Z,976.24
2022-11-20T10:22:54.606Z,976.23
2022-11-20T10:23:54.596Z,976.29
2022-11-20T10:24:54.595Z,976.25
2022-11-20T10:25:54.580Z,976.32
2022-11-20T10:26:54.567Z,976.26
2022-11-20T10:27:54.560Z,976.29
2022-11-20T10:28:59.201Z,976.29
2022-11-20T10:29:56.551Z,976.28
2022-11-20T10:30:54.528Z,976.27
2022-11-20T10:31:54.522Z,976.30
2022-11-20T10:32:54.512Z,976.37
2022-11-20T10:34:11.442Z,976.25
2022-11-20T10:34:56.506Z,976.27
2022-11-20T10:35:54.481Z,976.23
2022-11-20T10:36:54.475Z,976.25
2022-11-20T10:37:54.479Z,976.24
2022-11-20T10:38:54.460Z,976.19
2022-11-20T10:39:54.461Z,976.21
2022-11-20T10:40:54.436Z,976.19
2022-11-20T10:41:54.429Z,976.21
2022-11-20T10:42:54.421Z,976.20
2022-11-20T10:43:54.410Z,976.16
2022-11-20T10:44:56.653Z,976.19
2022-11-20T10:45:55.391Z,976.14
2022-11-20T10:46:54.380Z,976.11
2022-11-20T10:47:54.371Z,976.12
2022-11-20T10:48:54.366Z,976.03
2022-11-20T10:49:54.365Z,976.03
2022-11-20T10:50:54.381Z,976.04
2022-11-20T10:51:54.335Z,976.01
2022-11-20T10:52:54.322Z,976.00
2022-11-20T10:53:54.321Z,976.05
2022-11-20T10:54:54.322Z,975.99
2022-11-20T10:55:54.302Z,975.95
2022-11-20T10:56:54.294Z,975.98
2022-11-20T10:57:54.282Z,975.93
2022-11-20T10:58:54.271Z,975.91
2022-11-20T10:59:54.278Z,975.90
2022-11-20T11:00:54.355Z,975.91
2022-11-20T11:01:54.247Z,975.94
2022-11-20T11:02:54.246Z,975.89
2022-11-20T11:03:54.225Z,975.93
2022-11-20T11:04:54.226Z,975.92
2022-11-20T11:05:54.206Z,975.93
2022-11-20T11:06:54.194Z,975.89
2022-11-20T11:07:54.185Z,975.90
2022-11-20T11:08:54.183Z,975.87
2022-11-20T11:09:54.183Z,975.92
2022-11-20T11:10:54.198Z,975.82
2022-11-20T11:11:54.182Z,975.82
2022-11-20T11:12:54.146Z,975.85
2022-11-20T11:13:54.157Z,975.80
2022-11-20T11:14:54.137Z,975.81
2022-11-20T11:15:54.116Z,975.78
2022-11-20T11:16:54.106Z,975.80
2022-11-20T11:17:54.098Z,975.74
2022-11-20T11:18:54.091Z,975.76
2022-11-20T11:19:54.093Z,975.76
2022-11-20T11:20:54.071Z,975.77
2022-11-20T11:21:55.793Z,975.76
2022-11-20T11:22:55.053Z,975.81
2022-11-20T11:23:55.557Z,975.82
2022-11-20T11:24:54.049Z,975.81
2022-11-20T11:25:54.023Z,975.75
2022-11-20T11:26:54.015Z,975.82
2022-11-20T11:27:54.007Z,975.81
2022-11-20T11:28:53.998Z,975.72
2022-11-20T11:29:54.003Z,975.74
2022-11-20T11:30:53.989Z,975.73
2022-11-20T11:31:53.972Z,975.72
2022-11-20T11:32:54.002Z,975.66
2022-11-20T11:33:53.955Z,975.71
2022-11-20T11:34:53.960Z,975.73
2022-11-20T11:35:53.943Z,975.69
2022-11-20T11:36:53.927Z,975.69
2022-11-20T11:37:53.919Z,975.65
2022-11-20T11:38:53.908Z,975.62
2022-11-20T11:40:16.415Z,975.63
2022-11-20T11:40:55.968Z,975.63
2022-11-20T11:41:53.883Z,975.63
2022-11-20T11:42:53.869Z,975.67
2022-11-20T11:43:53.850Z,975.66
2022-11-20T11:44:54.863Z,975.70
2022-11-20T11:45:53.845Z,975.65
2022-11-20T11:46:53.830Z,975.68
2022-11-20T11:47:53.822Z,975.68
2022-11-20T11:48:53.811Z,975.66
2022-11-20T11:49:53.844Z,975.65
2022-11-20T11:50:54.828Z,975.60
2022-11-20T11:51:53.784Z,975.64
2022-11-20T11:52:53.772Z,975.59
2022-11-20T11:53:53.762Z,975.51
2022-11-20T11:54:53.763Z,975.48
2022-11-20T11:55:53.743Z,975.55
2022-11-20T11:56:53.897Z,975.50
2022-11-20T11:57:53.733Z,975.49
2022-11-20T11:58:53.710Z,975.48
2022-11-20T11:59:53.718Z,975.51
2022-11-20T12:00:53.697Z,975.50
2022-11-20T12:01:53.720Z,975.51
2022-11-20T12:02:53.817Z,975.47
2022-11-20T12:03:53.670Z,975.45
2022-11-20T12:04:53.673Z,975.51
2022-11-20T12:05:53.649Z,975.43
2022-11-20T12:06:53.638Z,975.43
2022-11-20T12:07:53.652Z,975.43
2022-11-20T12:08:53.631Z,975.43
2022-11-20T12:09:53.636Z,975.43
2022-11-20T12:10:53.619Z,975.40
2022-11-20T12:11:53.636Z,975.44
2022-11-20T12:12:53.582Z,975.43
2022-11-20T12:13:53.577Z,975.42
2022-11-20T12:14:53.620Z,975.47
2022-11-20T12:15:53.549Z,975.38
2022-11-20T12:16:53.548Z,975.43
2022-11-20T12:17:53.537Z,975.41
2022-11-20T12:18:53.526Z,975.38
2022-11-20T12:19:53.533Z,975.43
2022-11-20T12:20:53.508Z,975.39
2022-11-20T12:21:57.242Z,975.40
2022-11-20T12:22:55.494Z,975.35
2022-11-20T12:23:53.513Z,975.36
2022-11-20T12:24:53.475Z,975.42
2022-11-20T12:25:53.480Z,975.43
2022-11-20T12:26:53.459Z,975.50
2022-11-20T12:27:53.451Z,975.45